Time;durP1;ratioP1;P1;durP2;ratioP2;P2;SDS_P1;SDS_P2;PMS_P1;PMS_P2;Temp;Humidity;BMP_temperature;BMP_pressure;BME280_temperature;BME280_humidity;BME280_pressure;Samples;Min_cycle;Max_cycle;Signal;HPM_P1;HPM_P2
2021/01/26 00:00:40;;;;;;;21.13;14.43;;;;;;;8.14;42.15;100495.72;4968491;28;97271;-74
2021/01/26 00:03:08;;;;;;;21.27;14.77;;;;;;;8.14;42.14;100491.41;4968392;28;97167;-75
2021/01/26 00:05:35;;;;;;;21.90;15.52;;;;;;;8.18;42.11;100492.47;4962938;28;99045;-75
2021/01/26 00:08:02;;;;;;;18.75;14.38;;;;;;;8.22;42.26;100494.47;4962570;28;98719;-75
2021/01/26 00:10:30;;;;;;;23.58;13.80;;;;;;;8.20;42.53;100494.38;4966440;28;96698;-74
2021/01/26 00:12:57;;;;;;;22.08;13.65;;;;;;;8.20;42.50;100499.63;4963358;28;97206;-74
2021/01/26 00:15:26;;;;;;;19.27;13.70;;;;;;;8.23;41.96;100503.22;4965073;28;100072;-75
2021/01/26 00:17:53;;;;;;;20.08;13.95;;;;;;;8.23;42.14;100505.84;4970895;28;97680;-75
2021/01/26 00:20:21;;;;;;;20.08;12.70;;;;;;;8.27;42.41;100502.59;4969941;28;97360;-76
2021/01/26 00:22:49;;;;;;;22.02;13.13;;;;;;;8.26;41.97;100504.34;4964373;28;97993;-73
2021/01/26 00:25:18;;;;;;;18.83;12.77;;;;;;;8.26;41.92;100500.81;4958947;28;97147;-73
2021/01/26 00:27:45;;;;;;;18.40;13.07;;;;;;;8.28;42.19;100499.19;4970755;28;96934;-72
2021/01/26 00:30:17;;;;;;;16.75;13.20;;;;;;;8.27;42.38;100497.38;4969754;28;97815;-77
2021/01/26 00:32:46;;;;;;;18.80;12.52;;;;;;;8.29;42.08;100498.34;4964375;28;98264;-73
2021/01/26 00:35:15;;;;;;;17.58;11.60;;;;;;;8.29;42.23;100491.41;4966193;28;99028;-74
2021/01/26 00:37:43;;;;;;;17.20;12.73;;;;;;;8.30;42.25;100502.81;4969646;28;99784;-75
2021/01/26 00:40:11;;;;;;;14.40;11.38;;;;;;;8.32;41.99;100496.81;4975949;28;97145;-73
2021/01/26 00:42:39;;;;;;;17.83;11.88;;;;;;;8.34;41.99;100494.31;4974690;28;97815;-74
2021/01/26 00:45:07;;;;;;;14.40;10.68;;;;;;;8.35;42.07;100493.50;4951523;28;99222;-73
2021/01/26 00:47:36;;;;;;;13.82;10.77;;;;;;;8.36;41.86;100492.69;4947911;28;97672;-74
2021/01/26 00:50:05;;;;;;;13.02;10.57;;;;;;;8.34;41.83;100499.56;4957120;28;97326;-74
2021/01/26 00:52:34;;;;;;;14.48;10.30;;;;;;;8.33;41.81;100489.88;4963039;28;97527;-73
2021/01/26 00:55:10;;;;;;;14.18;10.38;;;;;;;8.31;41.85;100488.88;4950629;28;97424;-74
2021/01/26 00:57:38;;;;;;;10.68;9.60;;;;;;;8.33;41.76;100493.41;4965342;28;97731;-73
2021/01/26 01:00:08;;;;;;;13.77;10.40;;;;;;;8.29;41.65;100491.41;4949406;28;97383;-73
2021/01/26 01:02:36;;;;;;;11.52;9.95;;;;;;;8.29;41.77;100493.13;4948669;28;97274;-75
2021/01/26 01:05:06;;;;;;;14.43;9.65;;;;;;;8.27;41.98;100493.03;4953608;28;99476;-75
2021/01/26 01:07:33;;;;;;;13.07;9.05;;;;;;;8.26;41.77;100488.63;4963224;28;99349;-76
2021/01/26 01:10:01;;;;;;;12.27;9.55;;;;;;;8.26;41.97;100495.56;4954820;28;96985;-73
2021/01/26 01:12:29;;;;;;;11.13;9.38;;;;;;;8.26;41.99;100496.50;4952024;28;97647;-75
2021/01/26 01:14:56;;;;;;;11.27;9.05;;;;;;;8.27;41.77;100494.75;4962251;28;99294;-74
2021/01/26 01:17:23;;;;;;;10.23;9.05;;;;;;;8.27;41.77;100495.66;4969095;28;98636;-75
2021/01/26 01:19:51;;;;;;;10.63;9.07;;;;;;;8.28;41.60;100488.72;4962204;28;97675;-74
2021/01/26 01:22:19;;;;;;;10.38;8.98;;;;;;;8.30;41.64;100489.72;4965431;28;97534;-74
2021/01/26 01:24:46;;;;;;;12.73;9.18;;;;;;;8.32;41.74;100485.47;4967774;28;97825;-74
2021/01/26 01:27:14;;;;;;;11.15;9.35;;;;;;;8.31;41.61;100483.66;4961656;28;97766;-74
2021/01/26 01:29:41;;;;;;;10.18;8.88;;;;;;;8.33;41.95;100476.78;4967716;28;97075;-74
2021/01/26 01:32:08;;;;;;;12.00;10.18;;;;;;;8.34;41.44;100482.09;4962588;28;97802;-74
2021/01/26 01:34:35;;;;;;;12.77;9.48;;;;;;;8.40;41.50;100482.47;4965297;28;99055;-74
2021/01/26 01:37:03;;;;;;;11.95;9.43;;;;;;;8.43;41.54;100479.13;4968242;28;99172;-73
2021/01/26 01:39:31;;;;;;;11.40;9.00;;;;;;;8.45;41.38;100472.28;4968990;28;97706;-75
2021/01/26 01:41:58;;;;;;;13.27;10.23;;;;;;;8.50;41.22;100474.34;4964689;28;97634;-74
2021/01/26 01:44:26;;;;;;;11.70;9.82;;;;;;;8.53;41.23;100476.19;4959704;28;98998;-73
2021/01/26 01:46:56;;;;;;;15.82;9.65;;;;;;;8.57;41.11;100472.94;4961081;28;98601;-74
2021/01/26 01:49:27;;;;;;;11.23;10.02;;;;;;;8.53;41.23;100468.34;4968167;28;97639;-73
2021/01/26 01:51:55;;;;;;;12.57;10.50;;;;;;;8.55;41.23;100475.47;4967828;28;97609;-72
2021/01/26 01:54:24;;;;;;;17.15;13.68;;;;;;;8.65;40.84;100476.91;4963531;28;98362;-74
2021/01/26 01:57:16;;;;;;;15.45;11.43;;;;;;;8.64;41.05;100482.94;4965777;28;98843;-74
2021/01/26 01:59:45;;;;;;;12.45;10.60;;;;;;;8.62;41.00;100471.47;4968899;28;97919;-74
2021/01/26 02:02:13;;;;;;;15.48;11.60;;;;;;;8.62;41.35;100468.88;4964555;28;98218;-74
2021/01/26 02:04:41;;;;;;;13.07;10.68;;;;;;;8.58;41.18;100477.34;4963479;28;98047;-74
2021/01/26 02:07:09;;;;;;;16.85;10.85;;;;;;;8.57;41.22;100467.72;4952406;28;97859;-73
2021/01/26 02:09:39;;;;;;;15.55;11.98;;;;;;;8.55;41.26;100470.25;4966291;28;97539;-74
2021/01/26 02:12:10;;;;;;;14.95;12.00;;;;;;;8.56;40.95;100472.03;4970386;28;97754;-74
2021/01/26 02:14:40;;;;;;;14.60;10.82;;;;;;;8.53;41.19;100471.88;4956392;28;98232;-74
2021/01/26 02:17:16;;;;;;;18.70;12.82;;;;;;;8.51;41.51;100470.88;4963183;28;98394;-74
2021/01/26 02:20:38;;;;;;;16.80;12.20;;;;;;;8.56;41.14;100468.53;4962223;28;98575;-75
2021/01/26 02:23:15;;;;;;;15.30;11.93;;;;;;;8.56;41.09;100465.94;4907505;28;97166;-74
2021/01/26 02:26:05;;;;;;;18.50;13.48;;;;;;;8.57;41.22;100454.63;4899721;28;98290;-75
2021/01/26 02:28:37;;;;;;;19.35;12.30;;;;;;;8.60;41.23;100452.16;4944602;28;97750;-73
2021/01/26 02:31:30;;;;;;;18.67;13.40;;;;;;;8.62;41.18;100456.69;4950211;28;97616;-73
2021/01/26 02:34:36;;;;;;;23.15;13.57;;;;;;;8.68;41.52;100450.88;4962683;28;97395;-73
2021/01/26 02:37:40;;;;;;;17.77;13.15;;;;;;;8.73;41.45;100460.78;4902240;28;99285;-74
2021/01/26 02:40:12;;;;;;;20.17;13.90;;;;;;;8.78;41.40;100453.16;4945235;28;97489;-74
2021/01/26 02:42:48;;;;;;;19.98;13.55;;;;;;;8.81;40.92;100458.59;4949240;28;97672;-73
2021/01/26 02:45:32;;;;;;;29.40;19.93;;;;;;;8.93;40.57;100459.25;4955617;28;97605;-74
2021/01/26 02:48:10;;;;;;;23.13;15.57;;;;;;;8.93;40.76;100461.88;4961735;28;97886;-74
2021/01/26 02:50:42;;;;;;;23.15;15.02;;;;;;;8.95;41.10;100462.84;4951791;28;97225;-72
2021/01/26 02:53:12;;;;;;;23.13;15.27;;;;;;;9.00;40.73;100466.63;4966640;28;96778;-73
2021/01/26 02:55:45;;;;;;;20.08;13.85;;;;;;;9.01;40.59;100457.97;4961649;28;97605;-75
2021/01/26 02:58:16;;;;;;;29.90;20.45;;;;;;;9.14;40.28;100463.03;4962203;28;98620;-74
2021/01/26 03:00:47;;;;;;;27.58;20.20;;;;;;;9.25;40.43;100467.13;4966484;28;98616;-73
2021/01/26 03:03:19;;;;;;;23.15;15.52;;;;;;;9.23;40.57;100462.63;4964427;28;97347;-74
2021/01/26 03:05:49;;;;;;;20.33;15.00;;;;;;;9.28;40.43;100464.66;4945323;28;97619;-74
2021/01/26 03:08:19;;;;;;;22.05;14.93;;;;;;;9.30;40.92;100463.03;4967612;28;97888;-73
2021/01/26 03:10:53;;;;;;;26.20;14.88;;;;;;;9.33;40.52;100464.88;4962332;28;96792;-73
2021/01/26 03:13:20;;;;;;;21.70;14.25;;;;;;;9.36;40.38;100472.94;4967546;28;96725;-73
2021/01/26 03:15:52;;;;;;;23.27;15.27;;;;;;;9.38;40.19;100466.94;4970298;28;98248;-73
2021/01/26 03:18:21;;;;;;;19.02;13.90;;;;;;;9.39;40.21;100462.59;4952960;28;99379;-72
2021/01/26 03:20:52;;;;;;;19.23;14.05;;;;;;;9.41;40.19;100474.06;4969165;28;97681;-73
2021/01/26 03:23:22;;;;;;;20.38;13.65;;;;;;;9.40;40.49;100473.16;4957877;28;97992;-73
2021/01/26 03:25:52;;;;;;;21.65;14.23;;;;;;;9.41;40.12;100469.75;4967978;28;98330;-73
2021/01/26 03:28:22;;;;;;;21.90;14.88;;;;;;;9.51;39.86;100477.25;4971256;28;98032;-73
2021/01/26 03:30:50;;;;;;;22.55;15.10;;;;;;;9.52;40.20;100471.19;4968679;28;98374;-72
2021/01/26 03:33:22;;;;;;;23.70;15.48;;;;;;;9.53;40.58;100469.47;4948097;28;97995;-73
2021/01/26 03:35:49;;;;;;;24.45;15.52;;;;;;;9.53;40.31;100470.38;4976071;28;97002;-73
2021/01/26 03:38:19;;;;;;;22.75;15.57;;;;;;;9.54;40.61;100474.81;4960108;28;98625;-73
2021/01/26 03:40:51;;;;;;;22.88;14.90;;;;;;;9.58;40.11;100476.75;4971786;28;98032;-73
2021/01/26 03:43:18;;;;;;;24.48;15.70;;;;;;;9.59;40.16;100477.66;4973497;28;98209;-74
2021/01/26 03:45:47;;;;;;;24.02;15.32;;;;;;;9.63;39.64;100475.28;4969566;28;97338;-74
2021/01/26 03:48:29;;;;;;;23.60;15.70;;;;;;;9.64;39.86;100477.06;4968607;28;97857;-73
2021/01/26 03:51:05;;;;;;;23.25;15.13;;;;;;;9.66;39.67;100478.06;4953417;28;98247;-73
2021/01/26 03:53:44;;;;;;;22.80;15.45;;;;;;;9.64;39.96;100471.81;4971574;28;97760;-73
2021/01/26 03:56:19;;;;;;;21.77;14.50;;;;;;;9.66;40.08;100478.06;4973120;28;96911;-72
2021/01/26 03:59:30;;;;;;;23.83;15.73;;;;;;;9.57;39.67;100476.66;4973834;28;97165;-73
2021/01/26 04:02:01;;;;;;;32.22;20.65;;;;;;;9.71;39.94;100479.19;4965119;28;97785;-74
2021/01/26 04:04:34;;;;;;;27.42;17.45;;;;;;;9.69;39.99;100480.81;4970904;28;97407;-73
2021/01/26 04:07:03;;;;;;;23.10;16.08;;;;;;;9.47;40.74;100480.53;4958611;28;97834;-73
2021/01/26 04:09:34;;;;;;;20.92;14.75;;;;;;;9.47;40.30;100477.91;4966164;28;98619;-74
2021/01/26 04:12:05;;;;;;;19.67;14.80;;;;;;;9.47;40.58;100487.50;4967405;28;99176;-74
2021/01/26 04:14:36;;;;;;;21.20;15.20;;;;;;;9.42;40.68;100479.41;4965603;28;98007;-74
2021/01/26 04:17:08;;;;;;;21.48;14.27;;;;;;;9.40;40.98;100478.41;4952886;28;97208;-74
2021/01/26 04:19:37;;;;;;;17.88;13.77;;;;;;;9.42;40.82;100474.16;4964935;28;98211;-75
2021/01/26 04:22:06;;;;;;;20.90;14.05;;;;;;;9.41;41.17;100471.44;4969401;28;97299;-73
2021/01/26 04:24:35;;;;;;;23.85;15.38;;;;;;;9.41;40.71;100481.94;4969130;28;97258;-74
2021/01/26 04:27:06;;;;;;;19.25;14.52;;;;;;;9.39;41.01;100480.94;4970259;28;97807;-74
2021/01/26 04:29:33;;;;;;;41.90;22.85;;;;;;;9.41;41.29;100482.84;4952766;28;97510;-74
2021/01/26 04:32:01;;;;;;;29.63;17.45;;;;;;;9.44;40.88;100472.50;4964531;28;97765;-74
2021/01/26 04:34:28;;;;;;;25.48;16.40;;;;;;;9.47;41.30;100471.78;4967333;28;97352;-74
2021/01/26 04:36:56;;;;;;;23.13;15.98;;;;;;;9.50;41.34;100478.09;4966571;28;97240;-74
2021/01/26 04:39:23;;;;;;;22.13;16.20;;;;;;;9.54;40.91;100473.91;4973642;28;96924;-75
2021/01/26 04:41:52;;;;;;;21.95;15.05;;;;;;;9.52;41.22;100475.53;4964660;28;98027;-75
2021/01/26 04:44:32;;;;;;;27.00;17.38;;;;;;;9.51;41.41;100463.22;4966218;28;97247;-73
2021/01/26 04:47:11;;;;;;;24.15;16.05;;;;;;;9.53;41.53;100473.00;4970058;28;96873;-73
2021/01/26 04:49:49;;;;;;;24.58;16.35;;;;;;;9.50;41.48;100471.94;4971004;28;99973;-73
2021/01/26 04:52:24;;;;;;;29.20;17.05;;;;;;;9.51;41.75;100477.25;4956593;28;100693;-73
2021/01/26 04:55:02;;;;;;;26.08;17.25;;;;;;;9.51;41.56;100469.38;4971525;28;97307;-73
2021/01/26 04:57:40;;;;;;;29.75;17.13;;;;;;;9.47;42.01;100474.41;4969195;28;97847;-74
2021/01/26 05:00:21;;;;;;;26.88;17.83;;;;;;;9.47;41.44;100475.28;4964904;28;97909;-75
2021/01/26 05:03:29;;;;;;;28.10;17.75;;;;;;;9.47;41.98;100472.66;4946667;28;98969;-74
2021/01/26 05:06:18;;;;;;;26.90;16.52;;;;;;;9.46;41.35;100465.63;4944140;28;97222;-74
2021/01/26 05:08:50;;;;;;;29.77;17.88;;;;;;;9.48;41.55;100469.25;4953464;28;96975;-73
2021/01/26 05:11:19;;;;;;;47.03;28.23;;;;;;;9.49;41.28;100465.78;4966107;28;97586;-74
2021/01/26 05:13:49;;;;;;;30.58;19.50;;;;;;;9.52;41.47;100465.97;4967552;28;97749;-74
2021/01/26 05:16:23;;;;;;;33.90;24.37;;;;;;;9.58;42.69;100463.63;4969311;28;97426;-74
2021/01/26 05:18:53;;;;;;;26.67;18.30;;;;;;;9.55;42.27;100463.47;4955342;28;97158;-73
2021/01/26 05:21:26;;;;;;;25.50;17.88;;;;;;;9.55;42.29;100463.47;4966774;28;98981;-75
2021/01/26 05:23:57;;;;;;;22.92;16.15;;;;;;;9.58;42.40;100465.38;4968072;28;98447;-74
2021/01/26 05:26:24;;;;;;;22.95;16.90;;;;;;;9.58;42.19;100460.13;4963439;28;97122;-74
2021/01/26 05:28:52;;;;;;;25.10;16.45;;;;;;;9.57;42.29;100464.47;4962318;28;97761;-74
2021/01/26 05:31:28;;;;;;;32.10;23.10;;;;;;;9.66;42.34;100461.41;4950798;28;98572;-75
2021/01/26 05:33:58;;;;;;;26.60;18.42;;;;;;;9.66;42.86;100461.41;4969792;28;97925;-74
2021/01/26 05:36:26;;;;;;;63.47;34.58;;;;;;;9.68;42.03;100465.00;4971393;28;97569;-74
2021/01/26 05:38:53;;;;;;;37.13;22.70;;;;;;;9.66;42.13;100467.56;4950182;28;98106;-75
2021/01/26 05:41:21;;;;;;;24.90;17.20;;;;;;;9.65;42.35;100465.75;4959614;28;98480;-74
2021/01/26 05:43:50;;;;;;;30.23;17.42;;;;;;;9.64;41.99;100463.97;4964306;28;100283;-75
2021/01/26 05:46:36;;;;;;;27.08;16.88;;;;;;;9.65;42.35;100468.38;4968151;28;97999;-74
2021/01/26 05:49:35;;;;;;;25.10;17.60;;;;;;;9.68;42.30;100475.50;4974329;28;98240;-75
2021/01/26 05:52:04;;;;;;;31.38;17.38;;;;;;;9.67;42.24;100481.59;4963197;28;98611;-74
2021/01/26 05:54:33;;;;;;;32.05;18.80;;;;;;;9.66;42.43;100479.75;4952172;28;98104;-75
2021/01/26 05:57:00;;;;;;;26.95;17.85;;;;;;;9.67;41.85;100476.34;4955573;28;97230;-75
2021/01/26 05:59:30;;;;;;;31.85;18.75;;;;;;;9.70;41.98;100480.03;4953340;28;97550;-75
2021/01/26 06:02:13;;;;;;;31.13;17.95;;;;;;;9.64;42.17;100479.69;4966176;28;97874;-74
2021/01/26 06:04:40;;;;;;;27.80;17.80;;;;;;;9.62;42.34;100483.03;4966882;28;97849;-74
2021/01/26 06:07:17;;;;;;;30.67;18.10;;;;;;;9.62;42.17;100483.94;4970342;28;97240;-75
2021/01/26 06:09:44;;;;;;;30.70;17.98;;;;;;;9.62;42.29;100485.66;4953562;28;96994;-75
2021/01/26 06:12:14;;;;;;;32.30;18.85;;;;;;;9.59;42.62;100483.81;4962947;28;97897;-75
2021/01/26 06:14:46;;;;;;;32.70;19.50;;;;;;;9.58;41.95;100486.34;4952007;28;99028;-74
2021/01/26 06:17:21;;;;;;;30.58;17.17;;;;;;;9.56;42.40;100491.50;4939673;28;97571;-75
2021/01/26 06:20:03;;;;;;;28.58;17.25;;;;;;;9.55;42.13;100487.09;4961307;28;96804;-74
2021/01/26 06:22:31;;;;;;;30.77;18.55;;;;;;;9.54;42.12;100485.28;4961372;28;98871;-75
2021/01/26 06:25:00;;;;;;;33.97;19.55;;;;;;;9.54;42.24;100489.63;4963268;28;98921;-76
2021/01/26 06:27:59;;;;;;;34.38;18.77;;;;;;;9.52;42.79;100486.94;4962470;28;97118;-74
2021/01/26 06:30:36;;;;;;;28.92;17.70;;;;;;;9.47;42.44;100491.00;4963091;28;96850;-74
2021/01/26 06:33:27;;;;;;;29.38;19.33;;;;;;;9.42;42.44;100492.50;4958876;28;99234;-73
2021/01/26 06:36:04;;;;;;;30.75;18.13;;;;;;;9.38;42.51;100494.91;4957754;28;97718;-73
2021/01/26 06:38:50;;;;;;;29.27;18.27;;;;;;;9.36;42.66;100500.03;4952534;28;98316;-75
2021/01/26 06:41:27;;;;;;;32.28;19.27;;;;;;;9.33;42.54;100499.88;4964790;28;97486;-74
2021/01/26 06:44:23;;;;;;;33.67;18.60;;;;;;;9.28;42.58;100495.22;4959747;28;99158;-74
2021/01/26 06:47:08;;;;;;;31.60;19.10;;;;;;;9.25;42.52;100501.22;4962998;28;99127;-74
2021/01/26 06:49:46;;;;;;;29.35;18.63;;;;;;;9.18;42.46;100499.97;4958862;28;97248;-75
2021/01/26 06:52:29;;;;;;;30.50;18.63;;;;;;;9.13;42.65;100501.44;4960687;28;96908;-74
2021/01/26 06:55:14;;;;;;;31.75;19.45;;;;;;;9.08;42.93;100507.25;4957889;28;98358;-75
2021/01/26 06:58:06;;;;;;;29.55;19.40;;;;;;;9.07;42.94;100511.56;4960885;28;98150;-75
2021/01/26 07:01:00;;;;;;;34.00;21.13;;;;;;;9.03;43.00;100503.47;4956512;28;98436;-77
2021/01/26 07:04:26;;;;;;;29.20;19.35;;;;;;;9.04;42.65;100505.28;4962928;28;97934;-77
2021/01/26 07:07:22;;;;;;;34.83;19.55;;;;;;;9.00;42.61;100505.91;4959394;28;98736;-76
2021/01/26 07:10:23;;;;;;;30.50;20.90;;;;;;;8.95;43.12;100520.47;4958080;28;97742;-77
2021/01/26 07:13:15;;;;;;;32.08;19.80;;;;;;;8.92;42.88;100525.56;4910256;28;97646;-77
2021/01/26 07:15:55;;;;;;;31.17;19.95;;;;;;;8.89;43.21;100526.28;4961393;28;97805;-77
2021/01/26 07:18:57;;;;;;;32.15;20.58;;;;;;;8.86;42.86;100526.13;4962314;28;99225;-76
2021/01/26 07:21:36;;;;;;;31.10;20.83;;;;;;;8.86;43.30;100525.22;4926460;28;100758;-78
2021/01/26 07:24:23;;;;;;;32.70;21.23;;;;;;;8.86;43.01;100526.13;4962298;28;98136;-76
2021/01/26 07:27:07;;;;;;;31.77;19.70;;;;;;;8.91;43.14;100531.59;4964804;28;97364;-76
2021/01/26 07:29:41;;;;;;;33.97;19.13;;;;;;;8.92;42.84;100530.81;4963865;28;98940;-75
2021/01/26 07:32:13;;;;;;;33.75;20.40;;;;;;;8.91;42.95;100534.22;4966450;28;97985;-74
2021/01/26 07:34:46;;;;;;;32.47;19.35;;;;;;;8.87;43.05;100542.72;4966630;28;97806;-73
2021/01/26 07:37:16;;;;;;;29.77;19.38;;;;;;;8.87;43.15;100546.25;4962620;28;97432;-76
2021/01/26 07:39:49;;;;;;;31.88;19.38;;;;;;;8.87;43.23;100548.88;4961349;28;103402;-75
2021/01/26 07:42:20;;;;;;;28.08;18.85;;;;;;;8.87;42.87;100551.50;4961350;28;97747;-76
2021/01/26 07:44:57;;;;;;;30.27;19.13;;;;;;;8.88;42.87;100550.69;4960509;28;98154;-76
2021/01/26 07:47:28;;;;;;;31.75;20.20;;;;;;;8.88;43.33;100547.16;4949304;28;97673;-74
2021/01/26 07:49:59;;;;;;;33.15;20.55;;;;;;;8.89;42.91;100549.84;4960081;28;98197;-75
2021/01/26 07:52:28;;;;;;;33.53;20.10;;;;;;;8.96;43.24;100551.09;4961790;28;98286;-75
2021/01/26 07:55:01;;;;;;;32.13;19.27;;;;;;;8.98;43.05;100559.94;4955678;28;98499;-74
2021/01/26 07:57:36;;;;;;;30.23;20.00;;;;;;;9.01;43.09;100555.75;4956306;28;97466;-74
2021/01/26 08:00:06;;;;;;;31.25;19.35;;;;;;;9.05;42.72;100549.00;4948700;28;101506;-74
2021/01/26 08:02:37;;;;;;;31.98;18.52;;;;;;;9.08;42.86;100564.88;4953117;28;97798;-74
2021/01/26 08:05:09;;;;;;;27.85;18.92;;;;;;;9.09;42.88;100567.59;4963658;28;98843;-75
2021/01/26 08:07:36;;;;;;;26.67;18.13;;;;;;;9.10;42.60;100573.75;4965072;28;97314;-74
2021/01/26 08:10:06;;;;;;;30.48;19.80;;;;;;;9.10;43.14;100578.97;4959726;28;98517;-75
2021/01/26 08:12:53;;;;;;;33.45;19.25;;;;;;;9.11;42.68;100584.28;4963481;28;98070;-74
2021/01/26 08:15:28;;;;;;;35.95;20.73;;;;;;;9.15;42.63;100593.22;4963424;28;98081;-75
2021/01/26 08:17:56;;;;;;;34.88;20.15;;;;;;;9.18;42.48;100588.13;4947974;28;97573;-74
2021/01/26 08:20:30;;;;;;;28.20;19.35;;;;;;;9.16;42.95;100595.00;4962736;28;98629;-75
2021/01/26 08:23:00;;;;;;;31.00;19.08;;;;;;;9.17;42.86;100591.59;4964762;28;98216;-75
2021/01/26 08:25:31;;;;;;;29.70;18.90;;;;;;;9.17;42.88;100594.22;4965080;28;97321;-75
2021/01/26 08:28:03;;;;;;;30.20;19.63;;;;;;;9.20;42.95;100590.03;4964205;28;98090;-75
2021/01/26 08:31:04;;;;;;;28.58;18.85;;;;;;;9.25;42.73;100598.19;4963532;28;97558;-75
2021/01/26 08:33:34;;;;;;;30.92;18.40;;;;;;;9.27;42.28;100604.38;4952912;28;97941;-75
2021/01/26 08:36:33;;;;;;;29.40;18.50;;;;;;;9.27;42.60;100606.13;4962888;28;97907;-76
2021/01/26 08:39:06;;;;;;;30.23;19.42;;;;;;;9.28;42.95;100605.28;4965646;28;97518;-74
2021/01/26 08:41:45;;;;;;;25.90;18.85;;;;;;;9.31;42.35;100615.94;4966346;28;98867;-75
2021/01/26 08:44:49;;;;;;;27.63;18.38;;;;;;;9.27;42.85;100613.97;4962741;28;100591;-78
2021/01/26 08:47:44;;;;;;;29.50;19.25;;;;;;;9.28;42.94;100624.53;4957567;28;97300;-75
2021/01/26 08:50:29;;;;;;;31.23;19.63;;;;;;;9.31;42.89;100629.03;4951503;28;98861;-78
2021/01/26 08:53:16;;;;;;;32.50;19.60;;;;;;;9.35;42.72;100629.31;4954505;28;99363;-76
2021/01/26 08:55:45;;;;;;;32.15;20.92;;;;;;;9.37;42.07;100632.91;4957624;28;98096;-79
2021/01/26 08:58:37;;;;;;;28.88;19.40;;;;;;;9.41;42.93;100639.22;4963383;28;101192;-77
2021/01/26 09:01:06;;;;;;;29.08;18.35;;;;;;;9.43;42.96;100646.38;4961512;28;99033;-77
2021/01/26 09:03:40;;;;;;;32.20;19.88;;;;;;;9.43;42.76;100654.22;4957747;28;99288;-76
2021/01/26 09:06:14;;;;;;;31.35;20.13;;;;;;;9.48;42.94;100660.63;4959234;28;97754;-76
2021/01/26 09:08:51;;;;;;;31.15;20.23;;;;;;;9.52;42.65;100659.06;4971313;28;97232;-76
2021/01/26 09:11:22;;;;;;;31.10;20.23;;;;;;;9.54;42.67;100658.34;4930025;28;97751;-76
2021/01/26 09:13:51;;;;;;;33.92;21.20;;;;;;;9.59;42.37;100667.38;4957674;28;98644;-75
2021/01/26 09:16:21;;;;;;;32.20;20.70;;;;;;;9.66;42.28;100665.97;4954263;28;97824;-76
2021/01/26 09:18:52;;;;;;;35.28;22.17;;;;;;;9.72;42.34;100669.84;4956764;28;97037;-75
2021/01/26 09:21:20;;;;;;;35.88;21.73;;;;;;;9.77;42.24;100677.94;4947372;28;97794;-73
2021/01/26 09:23:53;;;;;;;29.90;19.08;;;;;;;9.82;42.55;100676.47;4962612;28;98146;-74
2021/01/26 09:26:21;;;;;;;32.97;20.02;;;;;;;9.83;41.94;100684.44;4958074;28;99304;-75
2021/01/26 09:28:51;;;;;;;32.60;20.58;;;;;;;9.83;41.69;100689.69;4964355;28;99068;-76
2021/01/26 09:31:20;;;;;;;32.78;19.92;;;;;;;9.83;42.39;100683.53;4951427;28;97486;-78
2021/01/26 09:33:48;;;;;;;32.28;20.63;;;;;;;9.87;41.98;100678.50;4967950;28;98004;-79
2021/01/26 09:36:20;;;;;;;31.35;20.60;;;;;;;9.85;42.25;100677.53;4966195;28;99220;-74
2021/01/26 09:38:49;;;;;;;32.22;19.92;;;;;;;9.86;41.80;100683.69;4965650;28;97685;-76
2021/01/26 09:41:20;;;;;;;32.70;21.17;;;;;;;9.86;41.83;100681.97;4966480;28;97304;-77
2021/01/26 09:43:49;;;;;;;30.90;18.75;;;;;;;9.88;41.99;100682.97;4973543;28;97804;-77
2021/01/26 09:46:25;;;;;;;35.42;20.70;;;;;;;9.91;41.99;100683.13;4968654;28;99474;-77
2021/01/26 09:48:55;;;;;;;27.80;18.30;;;;;;;9.96;42.23;100686.88;4963984;28;97735;-75
2021/01/26 09:51:25;;;;;;;30.55;20.00;;;;;;;9.98;41.71;100695.75;4968094;28;96895;-77
2021/01/26 09:53:59;;;;;;;33.38;19.80;;;;;;;10.02;42.22;100700.34;4959194;28;97919;-75
2021/01/26 09:56:28;;;;;;;30.67;18.42;;;;;;;10.04;41.82;100700.41;4965290;28;98861;-76
2021/01/26 09:58:56;;;;;;;30.35;19.10;;;;;;;10.03;42.44;100699.53;4962251;28;97434;-76
2021/01/26 10:01:25;;;;;;;31.58;19.48;;;;;;;10.12;42.17;100709.66;4963818;28;97303;-76
2021/01/26 10:03:57;;;;;;;30.75;19.35;;;;;;;10.16;41.85;100712.50;4965307;28;97952;-77
2021/01/26 10:06:26;;;;;;;34.05;20.15;;;;;;;10.20;41.93;100722.34;4965190;28;99081;-77
2021/01/26 10:08:53;;;;;;;31.85;19.17;;;;;;;10.15;41.98;100721.22;4952544;28;97318;-76
2021/01/26 10:11:27;;;;;;;33.95;19.98;;;;;;;10.15;41.58;100726.47;4961423;28;96811;-75
2021/01/26 10:14:16;;;;;;;29.23;18.60;;;;;;;10.11;41.94;100724.50;4948234;28;97685;-76
2021/01/26 10:16:46;;;;;;;33.35;19.83;;;;;;;10.07;42.46;100732.97;4969195;28;98154;-77
2021/01/26 10:19:16;;;;;;;29.08;19.38;;;;;;;10.09;42.12;100728.75;4966945;28;98308;-77
2021/01/26 10:21:43;;;;;;;31.65;19.95;;;;;;;10.12;42.21;100730.66;4966278;28;98145;-78
2021/01/26 10:24:18;;;;;;;28.60;18.05;;;;;;;10.14;41.77;100739.50;4969757;28;99491;-79
2021/01/26 10:26:46;;;;;;;29.42;18.80;;;;;;;10.19;42.09;100741.56;5035925;22;100704;-76
2021/01/26 10:29:18;;;;;;;31.92;20.10;;;;;;;10.14;42.10;100734.25;4944308;28;97379;-75
2021/01/26 10:31:49;;;;;;;28.90;19.10;;;;;;;10.15;42.67;100736.97;4936129;28;97709;-73
2021/01/26 10:34:40;;;;;;;30.75;20.35;;;;;;;10.07;42.57;100743.47;4939462;28;99144;-76
2021/01/26 10:37:10;;;;;;;33.90;19.80;;;;;;;10.04;42.29;100748.56;4933800;28;99225;-75
2021/01/26 10:39:37;;;;;;;33.15;20.65;;;;;;;10.04;42.55;100743.31;4933921;28;96773;-76
2021/01/26 10:42:11;;;;;;;32.35;19.38;;;;;;;10.13;41.97;100749.09;4931607;28;97362;-74
2021/01/26 10:44:44;;;;;;;32.25;20.17;;;;;;;10.16;41.80;100746.63;4924953;28;97933;-76
2021/01/26 10:47:18;;;;;;;35.67;19.45;;;;;;;10.23;42.01;100741.72;4924880;28;99051;-75
2021/01/26 10:49:53;;;;;;;31.52;19.60;;;;;;;10.20;41.98;100750.31;4924560;28;97432;-76
2021/01/26 10:55:59;;;;;;;29.90;18.15;;;;;;;10.20;41.70;100766.06;4908889;28;97876;-75
2021/01/26 10:58:41;;;;;;;27.98;17.50;;;;;;;10.14;42.24;100765.75;4888691;28;98752;-74
2021/01/26 11:01:52;;;;;;;29.70;18.80;;;;;;;10.13;42.48;100772.72;4902312;28;96981;-79
2021/01/26 11:04:48;;;;;;;26.20;18.17;;;;;;;10.09;42.34;100778.63;4898045;28;96935;-74
2021/01/26 11:07:24;;;;;;;28.73;17.90;;;;;;;10.04;42.58;100779.16;4916294;28;98390;-74
2021/01/26 11:09:53;;;;;;;34.20;19.55;;;;;;;10.01;42.43;100785.16;4894983;28;99071;-76
2021/01/26 11:12:34;;;;;;;32.72;19.98;;;;;;;10.01;42.59;100790.41;4906981;28;97003;-78
2021/01/26 11:15:05;;;;;;;32.28;19.63;;;;;;;9.99;42.23;100796.38;4919480;28;97423;-73
2021/01/26 11:17:34;;;;;;;30.63;18.80;;;;;;;9.94;42.95;100790.88;4900485;28;97144;-74
2021/01/26 11:20:12;;;;;;;31.92;18.98;;;;;;;9.86;42.58;100793.88;4907050;28;98876;-75
2021/01/26 11:22:46;;;;;;;41.10;27.55;;;;;;;9.99;42.91;100807.78;4905633;28;97373;-74
2021/01/26 11:25:35;;;;;;;34.97;21.90;;;;;;;10.01;43.19;100803.53;4898196;28;98001;-74
2021/01/26 11:28:05;;;;;;;43.03;27.67;;;;;;;10.15;43.34;100796.41;4900803;28;98415;-73
2021/01/26 11:30:34;;;;;;;36.15;22.27;;;;;;;10.10;43.30;100796.19;4895917;28;100220;-75
2021/01/26 11:33:04;;;;;;;29.90;19.80;;;;;;;10.10;42.58;100796.19;4900712;28;97366;-77
2021/01/26 11:35:47;;;;;;;31.80;19.48;;;;;;;10.12;43.27;100802.44;4903819;28;96950;-78
2021/01/26 11:38:18;;;;;;;29.25;18.95;;;;;;;10.17;42.81;100782.56;4904530;28;97412;-77
2021/01/26 11:40:50;;;;;;;42.40;27.58;;;;;;;10.27;42.83;100785.69;4927089;28;98579;-77
2021/01/26 11:43:19;;;;;;;33.38;20.35;;;;;;;10.30;43.01;100796.34;4907271;28;96944;-76
2021/01/26 11:45:47;;;;;;;32.72;21.08;;;;;;;10.30;42.93;100794.63;4911665;28;97122;-75
2021/01/26 11:48:14;;;;;;;33.40;21.02;;;;;;;10.29;42.59;100799.81;4908313;28;99815;-75
2021/01/26 11:50:43;;;;;;;33.90;21.55;;;;;;;10.32;43.21;100799.97;4923389;28;97473;-74
2021/01/26 11:53:15;;;;;;;30.80;19.63;;;;;;;10.39;43.48;100815.22;4914725;28;96879;-73